createdAt,value
2022-07-31T00:00:17.248Z,12.70
2022-07-31T00:02:44.839Z,7.67
2022-07-31T00:05:13.117Z,8.30
2022-07-31T00:07:39.959Z,8.57
2022-07-31T00:10:07.751Z,9.33
2022-07-31T00:12:35.084Z,10.40
2022-07-31T00:15:03.575Z,9.80
2022-07-31T00:17:30.395Z,10.23
2022-07-31T00:19:57.384Z,8.57
2022-07-31T00:22:24.259Z,7.80
2022-07-31T00:24:51.181Z,7.80
2022-07-31T00:27:18.044Z,10.27
2022-07-31T00:29:44.909Z,10.50
2022-07-31T00:32:11.757Z,10.80
2022-07-31T00:34:38.595Z,9.63
2022-07-31T00:37:05.795Z,11.37
2022-07-31T00:39:32.753Z,8.47
2022-07-31T00:41:59.795Z,9.70
2022-07-31T00:44:26.761Z,8.13
2022-07-31T00:46:53.609Z,8.87
2022-07-31T00:49:21.226Z,8.73
2022-07-31T00:51:48.277Z,8.00
2022-07-31T00:54:22.367Z,8.67
2022-07-31T00:56:50.642Z,12.93
2022-07-31T00:59:24.250Z,9.13
2022-07-31T01:01:51.862Z,8.87
2022-07-31T01:04:19.795Z,8.73
2022-07-31T01:06:47.545Z,8.57
2022-07-31T01:09:15.148Z,10.57
2022-07-31T01:11:52.159Z,14.67
2022-07-31T01:14:24.354Z,7.70
2022-07-31T01:16:54.187Z,9.40
2022-07-31T01:19:42.901Z,10.67
2022-07-31T01:22:33.170Z,10.27
2022-07-31T01:25:13.915Z,8.77
2022-07-31T01:28:05.986Z,8.20
2022-07-31T01:31:25.614Z,9.33
2022-07-31T01:33:56.566Z,12.70
2022-07-31T01:36:28.112Z,9.00
2022-07-31T01:38:57.326Z,9.27
2022-07-31T01:41:37.414Z,11.23
2022-07-31T01:44:07.245Z,13.50
2022-07-31T01:46:41.895Z,7.50
2022-07-31T01:49:11.532Z,8.57
2022-07-31T01:51:45.067Z,8.13
2022-07-31T01:54:13.045Z,8.77
2022-07-31T01:56:41.018Z,9.00
2022-07-31T01:59:19.909Z,9.00
2022-07-31T02:01:51.521Z,9.90
2022-07-31T02:04:20.812Z,12.93
2022-07-31T02:06:49.732Z,10.63
2022-07-31T02:09:19.363Z,11.43
2022-07-31T02:11:54.387Z,11.63
2022-07-31T02:14:22.876Z,9.00
2022-07-31T02:16:50.431Z,8.53
2022-07-31T02:19:18.653Z,11.57
2022-07-31T02:21:45.558Z,11.97
2022-07-31T02:24:12.682Z,8.93
2022-07-31T02:26:40.855Z,11.27
2022-07-31T02:29:19.566Z,9.70
2022-07-31T02:32:03.056Z,11.20
2022-07-31T02:34:32.357Z,8.60
2022-07-31T02:37:01.405Z,9.40
2022-07-31T02:39:30.834Z,7.07
2022-07-31T02:42:01.778Z,8.70
2022-07-31T02:44:31.913Z,8.33
2022-07-31T02:47:02.451Z,10.37
2022-07-31T02:49:30.577Z,9.43
2022-07-31T02:51:59.186Z,10.63
2022-07-31T02:54:26.470Z,9.67
2022-07-31T02:56:53.942Z,10.67
2022-07-31T02:59:22.403Z,9.20
2022-07-31T03:01:49.363Z,9.90
2022-07-31T03:04:16.189Z,8.87
2022-07-31T03:06:43.510Z,10.00
2022-07-31T03:09:10.381Z,9.30
2022-07-31T03:11:37.335Z,9.87
2022-07-31T03:14:09.017Z,9.97
2022-07-31T03:16:36.623Z,9.13
2022-07-31T03:19:05.583Z,7.67
2022-07-31T03:21:33.022Z,9.90
2022-07-31T03:24:00.527Z,8.10
2022-07-31T03:26:30.578Z,9.97
2022-07-31T03:29:00.608Z,8.03
2022-07-31T03:31:27.432Z,10.97
2022-07-31T03:33:54.457Z,11.70
2022-07-31T03:36:22.119Z,8.93
2022-07-31T03:38:50.726Z,10.20
2022-07-31T03:41:17.718Z,8.83
2022-07-31T03:43:48.092Z,9.27
2022-07-31T03:46:18.827Z,8.47
2022-07-31T03:48:46.776Z,8.53
2022-07-31T03:51:14.389Z,10.73
2022-07-31T03:53:42.474Z,10.07
2022-07-31T03:56:11.476Z,9.43
2022-07-31T03:58:38.775Z,11.00
2022-07-31T04:01:09.739Z,9.03
2022-07-31T04:03:39.500Z,9.10
2022-07-31T04:06:06.658Z,11.60
2022-07-31T04:08:34.143Z,9.50
2022-07-31T04:11:00.965Z,9.40
2022-07-31T04:13:28.509Z,13.90
2022-07-31T04:15:58.351Z,9.60
2022-07-31T04:18:25.204Z,12.07
2022-07-31T04:20:52.039Z,11.67
2022-07-31T04:23:18.941Z,11.67
2022-07-31T04:25:46.430Z,12.23
2022-07-31T04:28:13.354Z,11.83
2022-07-31T04:30:43.975Z,11.50
2022-07-31T04:33:11.027Z,9.17
2022-07-31T04:35:37.838Z,10.90
2022-07-31T04:38:04.687Z,8.80
2022-07-31T04:40:31.666Z,10.67
2022-07-31T04:42:58.558Z,11.63
2022-07-31T04:45:25.385Z,14.47
2022-07-31T04:47:52.286Z,9.03
2022-07-31T04:50:19.191Z,10.27
2022-07-31T04:52:46.040Z,9.47
2022-07-31T04:55:12.919Z,10.17
2022-07-31T04:57:39.821Z,8.77
2022-07-31T05:00:08.224Z,9.20
2022-07-31T05:02:35.622Z,8.60
2022-07-31T05:05:02.563Z,7.80
2022-07-31T05:07:29.559Z,8.67
2022-07-31T05:09:57.170Z,7.07
2022-07-31T05:12:24.123Z,7.73
2022-07-31T05:14:51.885Z,6.70
2022-07-31T05:17:18.855Z,6.33
2022-07-31T05:19:45.718Z,7.00
2022-07-31T05:22:12.546Z,6.20
2022-07-31T05:24:40.280Z,6.40
2022-07-31T05:27:07.378Z,5.97
2022-07-31T05:29:34.307Z,5.87
2022-07-31T05:32:01.540Z,6.50
2022-07-31T05:34:30.344Z,5.67
2022-07-31T05:37:01.766Z,4.70
2022-07-31T05:39:29.459Z,4.77
2022-07-31T05:41:56.339Z,6.03
2022-07-31T05:44:23.315Z,5.27
2022-07-31T05:49:16.231Z,4.73
2022-07-31T05:51:44.445Z,5.13
2022-07-31T05:54:11.310Z,5.00
2022-07-31T05:56:38.602Z,4.63
2022-07-31T05:59:05.479Z,4.70
2022-07-31T06:01:32.536Z,4.10
2022-07-31T06:03:59.444Z,4.73
2022-07-31T06:06:26.888Z,4.17
2022-07-31T06:08:53.941Z,4.57
2022-07-31T06:11:21.051Z,5.70
2022-07-31T06:13:48.757Z,4.60
2022-07-31T06:16:15.793Z,4.60
2022-07-31T06:18:42.949Z,4.07
2022-07-31T06:23:37.349Z,4.20
2022-07-31T06:26:04.937Z,4.57
2022-07-31T06:28:32.889Z,4.40
2022-07-31T06:31:22.234Z,5.77
2022-07-31T06:33:50.866Z,5.37
2022-07-31T06:36:18.876Z,4.77
2022-07-31T06:38:46.292Z,4.50
2022-07-31T06:41:35.927Z,3.97
2022-07-31T06:44:02.808Z,4.53
2022-07-31T06:46:29.677Z,4.33
2022-07-31T06:48:56.626Z,4.37
2022-07-31T06:51:31.897Z,4.57
2022-07-31T06:54:04.649Z,5.27
2022-07-31T06:56:33.104Z,10.33
2022-07-31T06:59:01.591Z,5.40
2022-07-31T07:01:29.463Z,11.13
2022-07-31T07:03:57.227Z,5.20
2022-07-31T07:06:24.620Z,10.90
2022-07-31T07:08:54.607Z,5.37
2022-07-31T07:11:21.994Z,4.93
2022-07-31T07:13:48.960Z,5.50
2022-07-31T07:16:16.654Z,5.83
2022-07-31T07:18:43.935Z,5.23
2022-07-31T07:21:11.160Z,5.50
2022-07-31T07:23:41.380Z,5.43
2022-07-31T07:26:08.513Z,7.73
2022-07-31T07:28:36.061Z,5.80
2022-07-31T07:31:04.507Z,6.10
2022-07-31T07:33:40.513Z,7.17
2022-07-31T07:36:08.900Z,6.17
2022-07-31T07:38:51.719Z,6.83
2022-07-31T07:41:19.076Z,7.57
2022-07-31T07:43:51.733Z,6.90
2022-07-31T07:46:23.747Z,7.10
2022-07-31T07:48:51.275Z,7.30
2022-07-31T07:51:32.141Z,7.13
2022-07-31T07:53:59.099Z,7.03
2022-07-31T07:56:25.959Z,7.97
2022-07-31T07:58:52.909Z,9.07
2022-07-31T08:01:20.823Z,10.37
2022-07-31T08:03:52.055Z,8.67
2022-07-31T08:06:26.290Z,8.23
2022-07-31T08:08:54.910Z,8.43
2022-07-31T08:11:21.810Z,8.67
2022-07-31T08:13:50.984Z,8.40
2022-07-31T08:16:20.849Z,8.90
2022-07-31T08:19:03.467Z,8.07
2022-07-31T08:21:52.242Z,8.40
2022-07-31T08:24:23.061Z,8.47
2022-07-31T08:27:10.725Z,9.77
2022-07-31T08:29:55.480Z,8.57
2022-07-31T08:32:26.236Z,8.57
2022-07-31T08:34:54.195Z,9.47
2022-07-31T08:37:52.338Z,8.70
2022-07-31T08:40:08.921Z,8.47
2022-07-31T08:42:37.707Z,8.57
2022-07-31T08:45:08.680Z,10.57
2022-07-31T08:47:36.791Z,10.23
2022-07-31T08:50:07.300Z,8.23
2022-07-31T08:52:39.816Z,7.90
2022-07-31T08:55:08.910Z,9.80
2022-07-31T08:57:37.074Z,8.83
2022-07-31T09:00:11.132Z,8.83
2022-07-31T09:02:40.512Z,8.17
2022-07-31T09:05:07.937Z,8.63
2022-07-31T09:07:34.816Z,9.07
2022-07-31T09:10:03.195Z,7.50
2022-07-31T09:12:34.638Z,8.27
2022-07-31T09:15:02.309Z,7.50
2022-07-31T09:17:36.407Z,8.63
2022-07-31T09:20:05.803Z,7.27
2022-07-31T09:22:34.073Z,7.40
2022-07-31T09:25:10.009Z,7.07
2022-07-31T09:27:37.005Z,7.10
2022-07-31T09:30:05.347Z,7.73
2022-07-31T09:32:32.191Z,7.70
2022-07-31T09:35:13.629Z,8.60
2022-07-31T09:37:41.037Z,6.87
2022-07-31T09:40:09.480Z,6.97
2022-07-31T09:42:48.222Z,6.40
2022-07-31T09:45:25.933Z,7.63
2022-07-31T09:48:08.623Z,6.90
2022-07-31T09:51:19.411Z,7.33
2022-07-31T09:53:52.023Z,7.57
2022-07-31T09:56:29.848Z,6.40
2022-07-31T09:58:57.370Z,6.83
2022-07-31T10:01:25.149Z,7.67
2022-07-31T10:03:53.084Z,11.13
2022-07-31T10:06:20.659Z,7.03
2022-07-31T10:08:49.175Z,7.30
2022-07-31T10:11:20.580Z,7.60
2022-07-31T10:13:51.008Z,9.07
2022-07-31T10:16:22.447Z,9.20
2022-07-31T10:18:56.559Z,8.43
2022-07-31T10:21:27.796Z,8.30
2022-07-31T10:24:02.304Z,8.57
2022-07-31T10:26:50.673Z,9.53
2022-07-31T10:29:18.035Z,7.53
2022-07-31T10:31:46.478Z,9.53
2022-07-31T10:34:15.310Z,9.80
2022-07-31T10:36:45.390Z,9.40
2022-07-31T10:39:31.509Z,12.80
2022-07-31T10:42:27.018Z,9.00
2022-07-31T10:45:08.612Z,9.20
2022-07-31T10:47:35.709Z,9.07
2022-07-31T10:50:04.202Z,8.90
2022-07-31T10:52:33.713Z,9.23
2022-07-31T10:55:03.601Z,9.20
2022-07-31T10:57:33.595Z,9.87
2022-07-31T11:00:20.881Z,11.03
2022-07-31T11:02:48.511Z,9.60
2022-07-31T11:05:23.576Z,9.83
2022-07-31T11:08:02.119Z,12.37
2022-07-31T11:10:34.242Z,10.87
2022-07-31T11:13:07.509Z,10.60
2022-07-31T11:15:37.505Z,11.23
2022-07-31T11:18:24.107Z,9.40
2022-07-31T11:21:13.629Z,14.00
2022-07-31T11:23:55.969Z,10.20
2022-07-31T11:26:33.421Z,9.60
2022-07-31T11:30:01.216Z,9.33
2022-07-31T11:32:25.041Z,9.70
2022-07-31T11:34:57.300Z,9.73
2022-07-31T11:37:30.620Z,10.93
2022-07-31T11:40:12.485Z,10.47
2022-07-31T11:42:46.353Z,9.73
2022-07-31T11:45:16.876Z,9.93
2022-07-31T11:48:11.769Z,9.20
2022-07-31T11:50:42.427Z,10.37
2022-07-31T11:53:09.703Z,9.63
2022-07-31T11:55:45.947Z,10.23
2022-07-31T11:58:13.571Z,12.90
2022-07-31T12:00:48.748Z,10.93
2022-07-31T12:03:21.184Z,9.70
2022-07-31T12:05:49.336Z,9.53
2022-07-31T12:08:16.616Z,10.47
2022-07-31T12:10:44.258Z,13.00
2022-07-31T12:13:15.900Z,15.17
2022-07-31T12:15:58.438Z,11.33
2022-07-31T12:18:28.141Z,9.50
2022-07-31T12:21:06.230Z,11.03
2022-07-31T12:23:47.072Z,10.57
2022-07-31T12:26:23.078Z,10.07
2022-07-31T12:29:01.091Z,16.23
2022-07-31T12:31:29.761Z,10.80
2022-07-31T12:33:57.676Z,12.60
2022-07-31T12:36:24.683Z,10.10
2022-07-31T12:39:02.252Z,10.30
2022-07-31T12:41:30.408Z,12.27
2022-07-31T12:44:13.125Z,10.47
2022-07-31T12:46:41.282Z,13.10
2022-07-31T12:49:08.919Z,13.50
2022-07-31T12:51:44.943Z,10.30
2022-07-31T12:54:15.680Z,12.80
2022-07-31T12:56:43.310Z,10.53
2022-07-31T12:59:10.448Z,10.50
2022-07-31T13:01:37.816Z,13.17
2022-07-31T13:04:07.799Z,20.03
2022-07-31T13:06:45.626Z,9.73
2022-07-31T13:09:12.469Z,11.00
2022-07-31T13:11:46.989Z,10.00
2022-07-31T13:14:20.586Z,10.40
2022-07-31T13:16:49.486Z,12.23
2022-07-31T13:19:16.921Z,9.80
2022-07-31T13:21:50.938Z,11.80
2022-07-31T13:24:19.550Z,14.83
2022-07-31T13:26:47.978Z,14.87
2022-07-31T13:29:34.003Z,13.30
2022-07-31T13:32:01.787Z,12.17
2022-07-31T13:34:28.792Z,10.63
2022-07-31T13:36:57.225Z,11.63
2022-07-31T13:39:24.140Z,11.13
2022-07-31T13:42:00.057Z,13.70
2022-07-31T13:44:27.109Z,13.13
2022-07-31T13:46:54.087Z,12.37
2022-07-31T13:49:21.562Z,12.93
2022-07-31T13:51:48.445Z,12.60
2022-07-31T13:54:16.519Z,12.40
2022-07-31T13:56:43.810Z,12.87
2022-07-31T13:59:14.738Z,14.07
2022-07-31T14:02:04.829Z,15.03
2022-07-31T14:04:38.675Z,14.33
2022-07-31T14:07:06.789Z,15.77
2022-07-31T14:09:39.329Z,13.03
2022-07-31T14:12:22.510Z,16.37
2022-07-31T14:14:49.487Z,15.40
2022-07-31T14:17:21.341Z,13.87
2022-07-31T14:19:48.779Z,15.70
2022-07-31T14:22:15.865Z,13.70
2022-07-31T14:24:50.611Z,13.30
2022-07-31T14:27:18.285Z,18.73
2022-07-31T14:29:48.511Z,17.43
2022-07-31T14:32:15.596Z,15.37
2022-07-31T14:34:42.848Z,12.63
2022-07-31T14:37:09.888Z,9.53
2022-07-31T14:39:42.852Z,11.00
2022-07-31T14:42:10.703Z,10.53
2022-07-31T14:44:38.357Z,10.30
2022-07-31T14:47:05.588Z,8.10
2022-07-31T14:50:06.626Z,13.97
2022-07-31T14:52:20.320Z,10.90
2022-07-31T14:54:47.183Z,10.43
2022-07-31T14:57:20.183Z,7.40
2022-07-31T14:59:50.209Z,7.93
2022-07-31T15:02:21.934Z,7.37
2022-07-31T15:04:50.128Z,8.60
2022-07-31T15:07:35.354Z,10.47
2022-07-31T15:10:08.972Z,6.80
2022-07-31T15:12:36.126Z,6.80
2022-07-31T15:15:03.968Z,7.50
2022-07-31T15:17:30.814Z,6.93
2022-07-31T15:19:57.735Z,8.00
2022-07-31T15:22:24.647Z,6.90
2022-07-31T15:24:51.653Z,4.57
2022-07-31T15:27:20.823Z,5.20
2022-07-31T15:30:03.418Z,5.70
2022-07-31T15:32:36.030Z,5.60
2022-07-31T15:35:03.683Z,5.33
2022-07-31T15:37:33.114Z,3.50
2022-07-31T15:40:02.502Z,5.83
2022-07-31T15:42:36.973Z,3.00
2022-07-31T15:45:04.359Z,3.83
2022-07-31T15:47:31.238Z,3.37
2022-07-31T15:49:58.275Z,4.20
2022-07-31T15:52:25.237Z,4.73
2022-07-31T15:54:52.796Z,3.60
2022-07-31T15:57:23.938Z,3.27
2022-07-31T15:59:54.388Z,4.23
2022-07-31T16:02:21.805Z,3.67
2022-07-31T16:04:52.898Z,4.07
2022-07-31T16:08:30.982Z,3.50
2022-07-31T16:10:15.204Z,4.73
2022-07-31T16:12:45.324Z,4.80
2022-07-31T16:15:12.821Z,3.47
2022-07-31T16:17:40.197Z,3.10
2022-07-31T16:20:25.910Z,3.20
2022-07-31T16:23:01.107Z,3.63
2022-07-31T16:25:32.223Z,3.77
2022-07-31T16:28:05.365Z,4.67
2022-07-31T16:30:32.636Z,5.60
2022-07-31T16:32:59.783Z,4.10
2022-07-31T16:38:08.134Z,4.73
2022-07-31T16:40:35.093Z,3.57
2022-07-31T16:43:50.892Z,5.97
2022-07-31T16:45:53.619Z,4.97
2022-07-31T16:48:21.458Z,3.73
2022-07-31T16:50:53.828Z,4.30
2022-07-31T16:54:11.525Z,4.13
2022-07-31T16:56:29.165Z,4.57
2022-07-31T16:59:00.720Z,4.27
2022-07-31T17:01:53.827Z,4.70
2022-07-31T17:04:15.739Z,7.33
2022-07-31T17:06:42.590Z,7.20
2022-07-31T17:09:15.322Z,10.17
2022-07-31T17:11:47.731Z,9.07
2022-07-31T17:14:16.192Z,10.40
2022-07-31T17:16:47.124Z,8.40
2022-07-31T17:19:15.221Z,10.43
2022-07-31T17:21:43.909Z,12.30
2022-07-31T17:24:13.452Z,11.57
2022-07-31T17:26:43.625Z,10.53
2022-07-31T17:29:10.761Z,11.47
2022-07-31T17:31:37.654Z,11.93
2022-07-31T17:34:09.263Z,12.60
2022-07-31T17:36:36.904Z,11.40
2022-07-31T17:39:04.929Z,13.30
2022-07-31T17:41:32.121Z,12.00
2022-07-31T17:43:58.966Z,15.60
2022-07-31T17:46:34.374Z,10.73
2022-07-31T17:49:08.196Z,12.17
2022-07-31T17:51:35.249Z,12.53
2022-07-31T17:54:08.943Z,12.57
2022-07-31T17:56:36.537Z,12.43
2022-07-31T17:59:06.381Z,15.60
2022-07-31T18:01:34.433Z,14.27
2022-07-31T18:04:02.468Z,14.50
2022-07-31T18:06:29.614Z,17.33
2022-07-31T18:08:57.013Z,15.97
2022-07-31T18:11:24.648Z,13.90
2022-07-31T18:13:55.284Z,16.57
2022-07-31T18:16:23.292Z,17.30
2022-07-31T18:18:54.151Z,16.30
2022-07-31T18:21:21.838Z,19.33
2022-07-31T18:23:48.744Z,15.23
2022-07-31T18:26:15.696Z,14.63
2022-07-31T18:28:45.785Z,15.73
2022-07-31T18:31:31.441Z,21.63
2022-07-31T18:33:59.390Z,15.87
2022-07-31T18:36:27.181Z,17.47
2022-07-31T18:38:54.144Z,17.30
2022-07-31T18:41:21.419Z,20.27
2022-07-31T18:43:48.242Z,17.33
2022-07-31T18:46:29.644Z,19.77
2022-07-31T18:48:57.053Z,19.53
2022-07-31T18:51:29.527Z,18.77
2022-07-31T18:53:58.269Z,23.00
2022-07-31T18:56:27.628Z,21.87
2022-07-31T18:58:55.975Z,19.50
2022-07-31T19:01:23.813Z,18.40
2022-07-31T19:03:51.850Z,13.83
2022-07-31T19:06:19.609Z,14.73
2022-07-31T19:08:49.538Z,20.17
2022-07-31T19:11:16.739Z,17.80
2022-07-31T19:13:43.962Z,14.87
2022-07-31T19:16:12.271Z,13.50
2022-07-31T19:18:50.800Z,13.03
2022-07-31T19:21:41.247Z,13.17
2022-07-31T19:24:07.666Z,16.17
2022-07-31T19:26:39.330Z,13.77
2022-07-31T19:29:06.591Z,11.57
2022-07-31T19:31:34.041Z,11.67
2022-07-31T19:34:01.503Z,10.67
2022-07-31T19:36:32.692Z,13.67
2022-07-31T19:39:00.249Z,11.53
2022-07-31T19:41:27.644Z,14.17
2022-07-31T19:43:55.105Z,12.10
2022-07-31T19:46:22.402Z,15.13
2022-07-31T19:48:52.611Z,13.67
2022-07-31T19:51:19.808Z,15.37
2022-07-31T19:53:47.005Z,14.10
2022-07-31T19:56:20.178Z,11.73
2022-07-31T19:58:54.898Z,10.53
2022-07-31T20:01:22.309Z,11.03
2022-07-31T20:03:50.454Z,9.23
2022-07-31T20:06:17.677Z,13.53
2022-07-31T20:08:46.016Z,11.30
2022-07-31T20:11:13.629Z,10.40
2022-07-31T20:13:46.935Z,11.50
2022-07-31T20:16:15.757Z,10.43
2022-07-31T20:18:43.588Z,10.90
2022-07-31T20:24:27.826Z,7.03
2022-07-31T20:26:54.885Z,9.60
2022-07-31T20:29:24.538Z,11.70
2022-07-31T20:31:51.726Z,8.53
2022-07-31T20:34:19.027Z,9.17
2022-07-31T20:36:46.446Z,7.60
2022-07-31T20:39:18.510Z,7.77
2022-07-31T20:41:45.567Z,6.97
2022-07-31T20:44:12.895Z,9.80
2022-07-31T20:46:39.931Z,10.20
2022-07-31T20:49:07.400Z,11.27
2022-07-31T20:51:54.155Z,8.10
2022-07-31T20:54:34.408Z,9.27
2022-07-31T20:57:01.667Z,8.47
2022-07-31T20:59:28.999Z,8.50
2022-07-31T21:01:55.860Z,7.77
2022-07-31T21:04:22.686Z,5.67
2022-07-31T21:06:49.841Z,6.30
2022-07-31T21:09:16.771Z,6.80
2022-07-31T21:11:43.677Z,6.73
2022-07-31T21:14:10.606Z,6.83
2022-07-31T21:16:37.535Z,8.33
2022-07-31T21:19:04.513Z,6.83
2022-07-31T21:21:31.850Z,9.20
2022-07-31T21:24:00.822Z,8.67
2022-07-31T21:26:30.231Z,8.90
2022-07-31T21:28:57.409Z,10.43
2022-07-31T21:31:24.502Z,11.43
2022-07-31T21:33:52.082Z,9.93
2022-07-31T21:36:21.353Z,10.27
2022-07-31T21:38:48.499Z,10.53
2022-07-31T21:41:16.445Z,8.50
2022-07-31T21:43:58.315Z,13.00
2022-07-31T21:46:28.635Z,10.83
2022-07-31T21:48:55.800Z,9.33
2022-07-31T21:51:25.942Z,8.97
2022-07-31T21:53:52.788Z,10.27
2022-07-31T21:56:19.644Z,11.57
2022-07-31T21:58:46.577Z,10.83
2022-07-31T22:01:16.550Z,10.97
2022-07-31T22:03:43.439Z,7.73
2022-07-31T22:06:28.634Z,10.07
2022-07-31T22:08:55.536Z,10.23
2022-07-31T22:11:22.566Z,10.53
2022-07-31T22:13:49.403Z,8.57
2022-07-31T22:16:16.236Z,8.27
2022-07-31T22:18:43.913Z,12.90
2022-07-31T22:21:11.286Z,8.83
2022-07-31T22:23:38.439Z,8.87
2022-07-31T22:26:05.487Z,8.17
2022-07-31T22:28:32.622Z,6.73
2022-07-31T22:30:59.663Z,8.53
2022-07-31T22:33:26.745Z,8.80
2022-07-31T22:35:59.461Z,8.87
2022-07-31T22:38:29.005Z,11.03
2022-07-31T22:40:56.300Z,10.83
2022-07-31T22:44:12.797Z,10.87
2022-07-31T22:46:12.318Z,17.13
2022-07-31T22:48:40.891Z,9.27
2022-07-31T22:51:08.802Z,10.83
2022-07-31T22:53:36.328Z,9.33
2022-07-31T22:56:04.152Z,11.50
2022-07-31T22:58:31.083Z,11.87
2022-07-31T23:00:57.995Z,9.50
2022-07-31T23:03:24.831Z,8.73
2022-07-31T23:06:02.397Z,9.53
2022-07-31T23:08:38.492Z,11.33
2022-07-31T23:11:05.292Z,9.67
2022-07-31T23:13:32.094Z,11.60
2022-07-31T23:15:59.654Z,10.93
2022-07-31T23:18:26.602Z,10.20
2022-07-31T23:20:53.410Z,9.47
2022-07-31T23:23:20.254Z,11.70
2022-07-31T23:25:47.122Z,11.10
2022-07-31T23:28:13.950Z,11.70
2022-07-31T23:30:40.831Z,11.13
2022-07-31T23:33:07.725Z,12.60
2022-07-31T23:35:34.609Z,11.03
2022-07-31T23:38:01.424Z,11.33
2022-07-31T23:40:28.261Z,10.07
2022-07-31T23:42:55.064Z,12.83
2022-07-31T23:45:23.531Z,10.27
2022-07-31T23:47:50.656Z,7.10
2022-07-31T23:50:17.777Z,6.73
2022-07-31T23:52:45.769Z,8.53
2022-07-31T23:55:13.151Z,7.23
2022-07-31T23:57:40.780Z,9.47
